createdAt,value
2018-07-26T00:00:04.163Z,1025.80470107
2018-07-26T00:00:16.622Z,1025.80470107
2018-07-26T00:00:29.052Z,1025.80470107
2018-07-26T00:00:41.697Z,1025.80470107
2018-07-26T00:00:54.092Z,1025.80470107
2018-07-26T00:01:06.491Z,1025.80470107
2018-07-26T00:01:19.048Z,1025.80470107
2018-07-26T00:01:31.446Z,1025.80470107
2018-07-26T00:01:43.837Z,1025.80470107
2018-07-26T00:01:56.226Z,1025.80470107
2018-07-26T00:02:08.717Z,1025.80470107
2018-07-26T00:02:21.111Z,1025.80470107
2018-07-26T00:02:33.517Z,1025.80470107
2018-07-26T00:02:45.955Z,1025.80470107
2018-07-26T00:02:58.342Z,1025.80470107
2018-07-26T00:03:10.735Z,1025.77083719
2018-07-26T00:03:23.186Z,1025.77083719
2018-07-26T00:03:35.587Z,1025.77083719
2018-07-26T00:03:47.992Z,1025.77083719
2018-07-26T00:04:00.383Z,1025.77083719
2018-07-26T00:04:12.760Z,1025.77083719
2018-07-26T00:04:25.137Z,1025.77083719
2018-07-26T00:04:37.521Z,1025.77083719
2018-07-26T00:04:49.908Z,1025.77083719
2018-07-26T00:05:02.301Z,1025.70310942
2018-07-26T00:05:14.711Z,1025.70310942
2018-07-26T00:05:27.102Z,1025.70310942
2018-07-26T00:05:39.515Z,1025.70310942
2018-07-26T00:05:51.898Z,1025.70310942
2018-07-26T00:06:04.282Z,1025.80470107
2018-07-26T00:06:16.674Z,1025.80470107
2018-07-26T00:06:29.075Z,1025.80470107
2018-07-26T00:06:41.460Z,1025.80470107
2018-07-26T00:06:53.849Z,1025.80470107
2018-07-26T00:07:06.356Z,1025.83856495
2018-07-26T00:07:18.753Z,1025.83856495
2018-07-26T00:07:31.137Z,1025.83856495
2018-07-26T00:07:43.573Z,1025.83856495
2018-07-26T00:07:56.105Z,1025.83856495
2018-07-26T00:08:08.732Z,1025.77083719
2018-07-26T00:08:21.122Z,1025.77083719
2018-07-26T00:08:33.513Z,1025.77083719
2018-07-26T00:08:45.913Z,1025.77083719
2018-07-26T00:08:58.301Z,1025.77083719
2018-07-26T00:09:10.712Z,1025.87242883
2018-07-26T00:09:23.108Z,1025.87242883
2018-07-26T00:09:35.511Z,1025.87242883
2018-07-26T00:09:47.899Z,1025.87242883
2018-07-26T00:10:00.289Z,1025.77083719
2018-07-26T00:10:12.719Z,1025.77083719
2018-07-26T00:10:25.118Z,1025.77083719
2018-07-26T00:10:37.518Z,1025.77083719
2018-07-26T00:10:49.934Z,1025.77083719
2018-07-26T00:11:02.327Z,1025.73697331
2018-07-26T00:11:14.706Z,1025.73697331
2018-07-26T00:11:27.103Z,1025.73697331
2018-07-26T00:11:39.588Z,1025.73697331
2018-07-26T00:11:52.032Z,1025.73697331
2018-07-26T00:12:04.416Z,1025.80470107
2018-07-26T00:12:16.846Z,1025.80470107
2018-07-26T00:12:29.230Z,1025.80470107
2018-07-26T00:12:41.621Z,1025.80470107
2018-07-26T00:12:54.021Z,1025.80470107
2018-07-26T00:13:07.108Z,1025.80470107
2018-07-26T00:13:19.514Z,1025.80470107
2018-07-26T00:13:31.953Z,1025.80470107
2018-07-26T00:13:44.347Z,1025.80470107
2018-07-26T00:13:56.745Z,1025.80470107
2018-07-26T00:14:09.134Z,1025.83856495
2018-07-26T00:14:21.528Z,1025.83856495
2018-07-26T00:14:33.935Z,1025.83856495
2018-07-26T00:14:46.331Z,1025.83856495
2018-07-26T00:14:58.730Z,1025.83856495
2018-07-26T00:15:11.116Z,1025.70310942
2018-07-26T00:15:23.503Z,1025.70310942
2018-07-26T00:15:35.895Z,1025.70310942
2018-07-26T00:15:48.332Z,1025.70310942
2018-07-26T00:16:00.708Z,1025.73697331
2018-07-26T00:16:13.103Z,1025.73697331
2018-07-26T00:16:25.515Z,1025.73697331
2018-07-26T00:16:37.926Z,1025.73697331
2018-07-26T00:16:50.534Z,1025.73697331
2018-07-26T00:17:02.910Z,1025.77083719
2018-07-26T00:17:15.322Z,1025.77083719
2018-07-26T00:17:27.755Z,1025.77083719
2018-07-26T00:17:40.150Z,1025.77083719
2018-07-26T00:17:52.536Z,1025.77083719
2018-07-26T00:18:04.911Z,1025.77083719
2018-07-26T00:18:17.303Z,1025.77083719
2018-07-26T00:18:29.693Z,1025.77083719
2018-07-26T00:18:42.099Z,1025.77083719
2018-07-26T00:18:54.491Z,1025.77083719
2018-07-26T00:19:06.881Z,1025.77083719
2018-07-26T00:19:19.278Z,1025.77083719
2018-07-26T00:19:31.716Z,1025.77083719
2018-07-26T00:19:44.274Z,1025.77083719
2018-07-26T00:19:56.813Z,1025.77083719
2018-07-26T00:20:09.228Z,1025.80470107
2018-07-26T00:20:21.638Z,1025.80470107
2018-07-26T00:20:34.013Z,1025.80470107
2018-07-26T00:20:46.403Z,1025.80470107
2018-07-26T00:20:58.794Z,1025.80470107
2018-07-26T00:21:11.207Z,1025.73697331
2018-07-26T00:21:23.644Z,1025.73697331
2018-07-26T00:21:36.493Z,1025.73697331
2018-07-26T00:21:49.748Z,1025.73697331
2018-07-26T00:22:02.142Z,1025.70310942
2018-07-26T00:22:14.553Z,1025.70310942
2018-07-26T00:22:26.964Z,1025.70310942
2018-07-26T00:22:39.368Z,1025.70310942
2018-07-26T00:22:51.759Z,1025.70310942
2018-07-26T00:23:04.150Z,1025.77083719
2018-07-26T00:23:16.696Z,1025.77083719
2018-07-26T00:23:29.095Z,1025.77083719
2018-07-26T00:23:41.478Z,1025.77083719
2018-07-26T00:23:53.885Z,1025.77083719
2018-07-26T00:24:06.309Z,1025.73697331
2018-07-26T00:24:18.693Z,1025.73697331
2018-07-26T00:24:31.119Z,1025.73697331
2018-07-26T00:24:43.507Z,1025.73697331
2018-07-26T00:24:55.953Z,1025.73697331
2018-07-26T00:25:08.370Z,1025.73697331
2018-07-26T00:25:20.789Z,1025.73697331
2018-07-26T00:25:33.170Z,1025.73697331
2018-07-26T00:25:45.612Z,1025.73697331
2018-07-26T00:25:58.002Z,1025.73697331
2018-07-26T00:26:10.402Z,1025.73697331
2018-07-26T00:26:22.789Z,1025.73697331
2018-07-26T00:26:35.246Z,1025.73697331
2018-07-26T00:26:47.641Z,1025.73697331
2018-07-26T00:27:00.025Z,1025.66924554
2018-07-26T00:27:12.423Z,1025.66924554
2018-07-26T00:27:24.821Z,1025.66924554
2018-07-26T00:27:37.565Z,1025.66924554
2018-07-26T00:27:50.547Z,1025.66924554
2018-07-26T00:28:02.938Z,1025.66924554
2018-07-26T00:28:15.359Z,1025.66924554
2018-07-26T00:28:27.791Z,1025.66924554
2018-07-26T00:28:40.411Z,1025.66924554
2018-07-26T00:28:52.800Z,1025.66924554
2018-07-26T00:29:05.234Z,1025.73697331
2018-07-26T00:29:17.643Z,1025.73697331
2018-07-26T00:29:30.038Z,1025.73697331
2018-07-26T00:29:42.440Z,1025.73697331
2018-07-26T00:29:54.847Z,1025.73697331
2018-07-26T00:30:07.237Z,1025.66924554
2018-07-26T00:30:19.639Z,1025.66924554
2018-07-26T00:30:32.035Z,1025.66924554
2018-07-26T00:30:44.429Z,1025.66924554
2018-07-26T00:30:56.826Z,1025.66924554
2018-07-26T00:31:09.208Z,1025.77083719
2018-07-26T00:31:21.617Z,1025.77083719
2018-07-26T00:31:34.022Z,1025.77083719
2018-07-26T00:31:46.451Z,1025.77083719
2018-07-26T00:31:58.845Z,1025.77083719
2018-07-26T00:32:11.229Z,1025.70310942
2018-07-26T00:32:23.620Z,1025.70310942
2018-07-26T00:32:36.019Z,1025.70310942
2018-07-26T00:32:48.419Z,1025.70310942
2018-07-26T00:33:00.845Z,1025.77083719
2018-07-26T00:33:13.256Z,1025.77083719
2018-07-26T00:33:25.689Z,1025.77083719
2018-07-26T00:33:38.111Z,1025.77083719
2018-07-26T00:33:50.518Z,1025.77083719
2018-07-26T00:34:02.918Z,1025.63538166
2018-07-26T00:34:15.307Z,1025.63538166
2018-07-26T00:34:27.701Z,1025.63538166
2018-07-26T00:34:40.133Z,1025.63538166
2018-07-26T00:34:52.533Z,1025.63538166
2018-07-26T00:35:04.980Z,1025.77083719
2018-07-26T00:35:17.370Z,1025.77083719
2018-07-26T00:35:29.755Z,1025.77083719
2018-07-26T00:35:42.155Z,1025.77083719
2018-07-26T00:35:54.547Z,1025.77083719
2018-07-26T00:36:06.977Z,1025.73697331
2018-07-26T00:36:19.357Z,1025.73697331
2018-07-26T00:36:31.744Z,1025.73697331
2018-07-26T00:36:44.135Z,1025.73697331
2018-07-26T00:36:56.538Z,1025.73697331
2018-07-26T00:37:08.933Z,1025.70310942
2018-07-26T00:37:21.332Z,1025.70310942
2018-07-26T00:37:33.736Z,1025.70310942
2018-07-26T00:37:46.136Z,1025.70310942
2018-07-26T00:37:58.524Z,1025.70310942
2018-07-26T00:38:10.928Z,1025.73697331
2018-07-26T00:38:23.319Z,1025.73697331
2018-07-26T00:38:35.714Z,1025.73697331
2018-07-26T00:38:48.098Z,1025.73697331
2018-07-26T00:39:00.481Z,1025.70310942
2018-07-26T00:39:12.865Z,1025.70310942
2018-07-26T00:39:25.254Z,1025.70310942
2018-07-26T00:39:37.636Z,1025.70310942
2018-07-26T00:39:50.069Z,1025.70310942
2018-07-26T00:40:02.488Z,1025.73697331
2018-07-26T00:40:14.893Z,1025.73697331
2018-07-26T00:40:27.288Z,1025.73697331
2018-07-26T00:40:39.732Z,1025.73697331
2018-07-26T00:40:52.116Z,1025.73697331
2018-07-26T00:41:04.516Z,1025.70310942
2018-07-26T00:41:17.367Z,1025.70310942
2018-07-26T00:41:30.346Z,1025.70310942
2018-07-26T00:41:42.758Z,1025.70310942
2018-07-26T00:41:55.179Z,1025.70310942
2018-07-26T00:42:07.567Z,1025.77083719
2018-07-26T00:42:19.980Z,1025.77083719
2018-07-26T00:42:32.368Z,1025.77083719
2018-07-26T00:42:44.781Z,1025.77083719
2018-07-26T00:42:57.421Z,1025.77083719
2018-07-26T00:43:09.837Z,1025.66924554
2018-07-26T00:43:22.382Z,1025.66924554
2018-07-26T00:43:34.768Z,1025.66924554
2018-07-26T00:43:47.200Z,1025.66924554
2018-07-26T00:43:59.601Z,1025.66924554
2018-07-26T00:44:12.010Z,1025.66924554
2018-07-26T00:44:24.419Z,1025.66924554
2018-07-26T00:44:36.812Z,1025.66924554
2018-07-26T00:44:49.368Z,1025.66924554
2018-07-26T00:45:01.754Z,1025.63538166
2018-07-26T00:45:14.152Z,1025.63538166
2018-07-26T00:45:26.537Z,1025.63538166
2018-07-26T00:45:38.925Z,1025.63538166
2018-07-26T00:45:51.321Z,1025.63538166
2018-07-26T00:46:03.733Z,1025.70310942
2018-07-26T00:46:16.130Z,1025.70310942
2018-07-26T00:46:28.509Z,1025.70310942
2018-07-26T00:46:40.893Z,1025.70310942
2018-07-26T00:46:53.301Z,1025.70310942
2018-07-26T00:47:05.758Z,1025.77083719
2018-07-26T00:47:18.150Z,1025.77083719
2018-07-26T00:47:30.532Z,1025.77083719
2018-07-26T00:47:42.909Z,1025.77083719
2018-07-26T00:47:55.320Z,1025.77083719
2018-07-26T00:48:07.708Z,1025.73697331
2018-07-26T00:48:20.109Z,1025.73697331
2018-07-26T00:48:32.498Z,1025.73697331
2018-07-26T00:48:45.290Z,1025.73697331
2018-07-26T00:48:58.329Z,1025.73697331
2018-07-26T00:49:10.722Z,1025.66924554
2018-07-26T00:49:23.125Z,1025.66924554
2018-07-26T00:49:35.539Z,1025.66924554
2018-07-26T00:49:47.928Z,1025.66924554
2018-07-26T00:50:00.330Z,1025.66924554
2018-07-26T00:50:12.735Z,1025.66924554
2018-07-26T00:50:25.127Z,1025.66924554
2018-07-26T00:50:37.518Z,1025.66924554
2018-07-26T00:50:49.904Z,1025.66924554
2018-07-26T00:51:02.294Z,1025.66924554
2018-07-26T00:51:14.754Z,1025.66924554
2018-07-26T00:51:27.142Z,1025.66924554
2018-07-26T00:51:39.599Z,1025.66924554
2018-07-26T00:51:52.055Z,1025.66924554
2018-07-26T00:52:04.457Z,1025.70310942
2018-07-26T00:52:16.869Z,1025.70310942
2018-07-26T00:52:29.263Z,1025.70310942
2018-07-26T00:52:41.644Z,1025.70310942
2018-07-26T00:52:54.036Z,1025.70310942
2018-07-26T00:53:06.436Z,1025.70310942
2018-07-26T00:53:18.828Z,1025.70310942
2018-07-26T00:53:31.219Z,1025.70310942
2018-07-26T00:53:43.618Z,1025.70310942
2018-07-26T00:53:56.052Z,1025.70310942
2018-07-26T00:54:08.453Z,1025.70310942
2018-07-26T00:54:20.837Z,1025.70310942
2018-07-26T00:54:33.231Z,1025.70310942
2018-07-26T00:54:45.653Z,1025.70310942
2018-07-26T00:54:58.039Z,1025.70310942
2018-07-26T00:55:10.453Z,1025.66924554
2018-07-26T00:55:22.846Z,1025.66924554
2018-07-26T00:55:35.393Z,1025.66924554
2018-07-26T00:55:47.774Z,1025.66924554
2018-07-26T00:56:00.172Z,1025.70310942
2018-07-26T00:56:12.573Z,1025.70310942
2018-07-26T00:56:25.009Z,1025.70310942
2018-07-26T00:56:37.406Z,1025.70310942
2018-07-26T00:56:49.823Z,1025.70310942
2018-07-26T00:57:02.197Z,1025.63538166
2018-07-26T00:57:14.577Z,1025.63538166
2018-07-26T00:57:26.977Z,1025.63538166
2018-07-26T00:57:39.409Z,1025.63538166
2018-07-26T00:57:51.806Z,1025.63538166
2018-07-26T00:58:04.202Z,1025.60151778
2018-07-26T00:58:16.598Z,1025.60151778
2018-07-26T00:58:29.000Z,1025.60151778
2018-07-26T00:58:41.386Z,1025.60151778
2018-07-26T00:58:53.952Z,1025.60151778
2018-07-26T00:59:06.346Z,1025.70310942
2018-07-26T00:59:18.745Z,1025.70310942
2018-07-26T00:59:31.128Z,1025.70310942
2018-07-26T00:59:43.535Z,1025.70310942
2018-07-26T00:59:55.940Z,1025.70310942
2018-07-26T01:00:08.341Z,1025.70310942
2018-07-26T01:00:20.752Z,1025.70310942
2018-07-26T01:00:33.167Z,1025.70310942
2018-07-26T01:00:45.776Z,1025.70310942
2018-07-26T01:00:58.169Z,1025.70310942
2018-07-26T01:01:10.801Z,1025.63538166
2018-07-26T01:01:23.187Z,1025.63538166
2018-07-26T01:01:35.585Z,1025.63538166
2018-07-26T01:01:47.987Z,1025.63538166
2018-07-26T01:02:00.375Z,1025.60151778
2018-07-26T01:02:12.958Z,1025.60151778
2018-07-26T01:02:25.363Z,1025.60151778
2018-07-26T01:02:37.776Z,1025.60151778
2018-07-26T01:02:50.181Z,1025.60151778
2018-07-26T01:03:02.632Z,1025.60151778
2018-07-26T01:03:15.027Z,1025.60151778
2018-07-26T01:03:27.446Z,1025.60151778
2018-07-26T01:03:39.830Z,1025.60151778
2018-07-26T01:03:52.293Z,1025.60151778
2018-07-26T01:04:04.675Z,1025.66924554
2018-07-26T01:04:17.051Z,1025.66924554
2018-07-26T01:04:29.428Z,1025.66924554
2018-07-26T01:04:41.823Z,1025.66924554
2018-07-26T01:04:54.198Z,1025.66924554
2018-07-26T01:05:06.611Z,1025.60151778
2018-07-26T01:05:19.008Z,1025.60151778
2018-07-26T01:05:31.395Z,1025.60151778
2018-07-26T01:05:43.809Z,1025.60151778
2018-07-26T01:05:56.192Z,1025.60151778
2018-07-26T01:06:08.575Z,1025.53379002
2018-07-26T01:06:21.121Z,1025.53379002
2018-07-26T01:06:33.503Z,1025.53379002
2018-07-26T01:06:45.892Z,1025.53379002
2018-07-26T01:06:58.287Z,1025.53379002
2018-07-26T01:07:10.677Z,1025.70310942
2018-07-26T01:07:23.071Z,1025.70310942
2018-07-26T01:07:35.459Z,1025.70310942
2018-07-26T01:07:48.102Z,1025.70310942
2018-07-26T01:08:00.516Z,1025.60151778
2018-07-26T01:08:12.915Z,1025.60151778
2018-07-26T01:08:25.305Z,1025.60151778
2018-07-26T01:08:37.717Z,1025.60151778
2018-07-26T01:08:50.115Z,1025.60151778
2018-07-26T01:09:02.506Z,1025.66924554
2018-07-26T01:09:14.889Z,1025.66924554
2018-07-26T01:09:27.379Z,1025.66924554
2018-07-26T01:09:40.474Z,1025.66924554
2018-07-26T01:09:53.178Z,1025.66924554
2018-07-26T01:10:05.577Z,1025.70310942
2018-07-26T01:10:17.970Z,1025.70310942
2018-07-26T01:10:30.411Z,1025.70310942
2018-07-26T01:10:42.813Z,1025.70310942
2018-07-26T01:10:55.220Z,1025.70310942
2018-07-26T01:11:07.608Z,1025.60151778
2018-07-26T01:11:20.061Z,1025.60151778
2018-07-26T01:11:32.460Z,1025.60151778
2018-07-26T01:11:44.858Z,1025.60151778
2018-07-26T01:11:57.345Z,1025.60151778
2018-07-26T01:12:09.735Z,1025.63538166
2018-07-26T01:12:22.141Z,1025.63538166
2018-07-26T01:12:34.539Z,1025.63538166
2018-07-26T01:12:46.938Z,1025.63538166
2018-07-26T01:12:59.450Z,1025.63538166
2018-07-26T01:13:11.887Z,1025.63538166
2018-07-26T01:13:24.275Z,1025.63538166
2018-07-26T01:13:36.670Z,1025.63538166
2018-07-26T01:13:49.096Z,1025.63538166
2018-07-26T01:14:01.504Z,1025.73697331
2018-07-26T01:14:13.904Z,1025.73697331
2018-07-26T01:14:26.308Z,1025.73697331
2018-07-26T01:14:38.750Z,1025.73697331
2018-07-26T01:14:51.143Z,1025.73697331
2018-07-26T01:15:03.555Z,1025.66924554
2018-07-26T01:15:16.004Z,1025.66924554
2018-07-26T01:15:28.393Z,1025.66924554
2018-07-26T01:15:40.780Z,1025.66924554
2018-07-26T01:15:53.182Z,1025.66924554
2018-07-26T01:16:05.577Z,1025.73697331
2018-07-26T01:16:17.963Z,1025.73697331
2018-07-26T01:16:30.368Z,1025.73697331
2018-07-26T01:16:42.772Z,1025.73697331
2018-07-26T01:16:55.165Z,1025.73697331
2018-07-26T01:17:07.545Z,1025.66924554
2018-07-26T01:17:19.941Z,1025.66924554
2018-07-26T01:17:32.315Z,1025.66924554
2018-07-26T01:17:44.707Z,1025.66924554
2018-07-26T01:17:57.132Z,1025.66924554
2018-07-26T01:18:09.536Z,1025.77083719
2018-07-26T01:18:21.924Z,1025.77083719
2018-07-26T01:18:34.328Z,1025.77083719
2018-07-26T01:18:46.742Z,1025.77083719
2018-07-26T01:18:59.134Z,1025.77083719
2018-07-26T01:19:11.524Z,1025.70310942
2018-07-26T01:19:23.920Z,1025.70310942
2018-07-26T01:19:36.312Z,1025.70310942
2018-07-26T01:19:48.694Z,1025.70310942
2018-07-26T01:20:01.092Z,1025.70310942
2018-07-26T01:20:13.472Z,1025.70310942
2018-07-26T01:20:26.316Z,1025.70310942
2018-07-26T01:20:38.695Z,1025.70310942
2018-07-26T01:20:51.091Z,1025.70310942
2018-07-26T01:21:03.488Z,1025.63538166
2018-07-26T01:21:15.925Z,1025.63538166
2018-07-26T01:21:28.438Z,1025.63538166
2018-07-26T01:21:40.843Z,1025.63538166
2018-07-26T01:21:53.234Z,1025.63538166
2018-07-26T01:22:05.623Z,1025.77083719
2018-07-26T01:22:18.007Z,1025.77083719
2018-07-26T01:22:30.405Z,1025.77083719
2018-07-26T01:22:42.786Z,1025.77083719
2018-07-26T01:22:55.187Z,1025.77083719
2018-07-26T01:23:07.617Z,1025.66924554
2018-07-26T01:23:20.096Z,1025.66924554
2018-07-26T01:23:32.481Z,1025.66924554
2018-07-26T01:23:44.864Z,1025.66924554
2018-07-26T01:23:57.271Z,1025.66924554
2018-07-26T01:24:09.676Z,1025.73697331
2018-07-26T01:24:22.060Z,1025.73697331
2018-07-26T01:24:34.456Z,1025.73697331
2018-07-26T01:24:46.846Z,1025.73697331
2018-07-26T01:24:59.267Z,1025.73697331
2018-07-26T01:25:11.697Z,1025.77083719
2018-07-26T01:25:24.085Z,1025.77083719
2018-07-26T01:25:36.486Z,1025.77083719
2018-07-26T01:25:48.885Z,1025.77083719
2018-07-26T01:26:01.296Z,1025.77083719
2018-07-26T01:26:13.694Z,1025.77083719
2018-07-26T01:26:26.099Z,1025.77083719
2018-07-26T01:26:38.496Z,1025.77083719
2018-07-26T01:26:50.889Z,1025.77083719
2018-07-26T01:27:03.286Z,1025.77083719
2018-07-26T01:27:15.673Z,1025.77083719
2018-07-26T01:27:28.071Z,1025.77083719
2018-07-26T01:27:40.462Z,1025.77083719
2018-07-26T01:27:52.855Z,1025.77083719
2018-07-26T01:28:05.249Z,1025.73697331
2018-07-26T01:28:17.689Z,1025.73697331
2018-07-26T01:28:30.258Z,1025.73697331
2018-07-26T01:28:42.655Z,1025.73697331
2018-07-26T01:28:55.042Z,1025.73697331
2018-07-26T01:29:07.463Z,1025.73697331
2018-07-26T01:29:19.852Z,1025.73697331
2018-07-26T01:29:32.302Z,1025.73697331
2018-07-26T01:29:44.707Z,1025.73697331
2018-07-26T01:29:57.115Z,1025.73697331
2018-07-26T01:30:09.507Z,1025.77083719
2018-07-26T01:30:21.888Z,1025.77083719
2018-07-26T01:30:34.267Z,1025.77083719
2018-07-26T01:30:46.651Z,1025.77083719
2018-07-26T01:30:59.079Z,1025.77083719
2018-07-26T01:31:11.477Z,1025.77083719
2018-07-26T01:31:23.861Z,1025.77083719
2018-07-26T01:31:36.253Z,1025.77083719
2018-07-26T01:31:48.659Z,1025.77083719
2018-07-26T01:32:01.071Z,1025.73697331
2018-07-26T01:32:13.518Z,1025.73697331
2018-07-26T01:32:25.906Z,1025.73697331
2018-07-26T01:32:38.325Z,1025.73697331
2018-07-26T01:32:50.729Z,1025.73697331
2018-07-26T01:33:03.121Z,1025.73697331
2018-07-26T01:33:15.518Z,1025.73697331
2018-07-26T01:33:27.905Z,1025.73697331
2018-07-26T01:33:40.322Z,1025.73697331
2018-07-26T01:33:52.700Z,1025.73697331
2018-07-26T01:34:05.083Z,1025.70310942
2018-07-26T01:34:17.480Z,1025.70310942
2018-07-26T01:34:29.906Z,1025.70310942
2018-07-26T01:34:42.286Z,1025.70310942
2018-07-26T01:34:54.684Z,1025.70310942
2018-07-26T01:35:07.128Z,1025.70310942
2018-07-26T01:35:19.519Z,1025.70310942
2018-07-26T01:35:31.902Z,1025.70310942
2018-07-26T01:35:44.297Z,1025.70310942
2018-07-26T01:35:56.698Z,1025.70310942
2018-07-26T01:36:09.096Z,1025.63538166
2018-07-26T01:36:21.545Z,1025.63538166
2018-07-26T01:36:33.936Z,1025.63538166
2018-07-26T01:36:46.324Z,1025.63538166
2018-07-26T01:36:58.762Z,1025.63538166
2018-07-26T01:37:11.150Z,1025.73697331
2018-07-26T01:37:23.530Z,1025.73697331
2018-07-26T01:37:35.919Z,1025.73697331
2018-07-26T01:37:48.344Z,1025.73697331
2018-07-26T01:38:00.735Z,1025.70310942
2018-07-26T01:38:13.123Z,1025.70310942
2018-07-26T01:38:25.522Z,1025.70310942
2018-07-26T01:38:37.953Z,1025.70310942
2018-07-26T01:38:50.339Z,1025.70310942
2018-07-26T01:39:02.722Z,1025.73697331
2018-07-26T01:39:15.112Z,1025.73697331
2018-07-26T01:39:27.489Z,1025.73697331
2018-07-26T01:39:39.883Z,1025.73697331
2018-07-26T01:39:52.263Z,1025.73697331
2018-07-26T01:40:04.658Z,1025.70310942
2018-07-26T01:40:17.117Z,1025.70310942
2018-07-26T01:40:29.495Z,1025.70310942
2018-07-26T01:40:41.914Z,1025.70310942
2018-07-26T01:40:54.303Z,1025.70310942
2018-07-26T01:41:06.712Z,1025.77083719
2018-07-26T01:41:19.105Z,1025.77083719
2018-07-26T01:41:31.501Z,1025.77083719
2018-07-26T01:41:43.878Z,1025.77083719
2018-07-26T01:41:56.265Z,1025.77083719
2018-07-26T01:42:08.685Z,1025.77083719
2018-07-26T01:42:21.133Z,1025.77083719
2018-07-26T01:42:33.517Z,1025.77083719
2018-07-26T01:42:45.907Z,1025.77083719
2018-07-26T01:42:58.444Z,1025.77083719
2018-07-26T01:43:10.826Z,1025.80470107
2018-07-26T01:43:23.316Z,1025.80470107
2018-07-26T01:43:35.705Z,1025.80470107
2018-07-26T01:43:48.093Z,1025.80470107
2018-07-26T01:44:00.489Z,1025.73697331
2018-07-26T01:44:12.880Z,1025.73697331
2018-07-26T01:44:25.287Z,1025.73697331
2018-07-26T01:44:37.687Z,1025.73697331
2018-07-26T01:44:50.237Z,1025.73697331
2018-07-26T01:45:02.656Z,1025.73697331
2018-07-26T01:45:15.070Z,1025.73697331
2018-07-26T01:45:27.451Z,1025.73697331
2018-07-26T01:45:39.860Z,1025.73697331
2018-07-26T01:45:52.248Z,1025.73697331
2018-07-26T01:46:04.647Z,1025.80470107
2018-07-26T01:46:17.041Z,1025.80470107
2018-07-26T01:46:29.439Z,1025.80470107
2018-07-26T01:46:41.829Z,1025.80470107
2018-07-26T01:46:54.215Z,1025.80470107
2018-07-26T01:47:06.618Z,1025.77083719
2018-07-26T01:47:18.997Z,1025.77083719
2018-07-26T01:47:31.384Z,1025.77083719
2018-07-26T01:47:43.773Z,1025.77083719
2018-07-26T01:47:56.172Z,1025.77083719
2018-07-26T01:48:08.621Z,1025.80470107
2018-07-26T01:48:21.024Z,1025.80470107
2018-07-26T01:48:33.420Z,1025.80470107
2018-07-26T01:48:45.801Z,1025.80470107
2018-07-26T01:48:58.273Z,1025.80470107
2018-07-26T01:49:10.664Z,1025.77083719
2018-07-26T01:49:23.053Z,1025.77083719
2018-07-26T01:49:35.494Z,1025.77083719
2018-07-26T01:49:47.887Z,1025.77083719
2018-07-26T01:50:00.279Z,1025.77083719
2018-07-26T01:50:12.670Z,1025.77083719
2018-07-26T01:50:25.105Z,1025.77083719
2018-07-26T01:50:37.495Z,1025.77083719
2018-07-26T01:50:49.943Z,1025.77083719
2018-07-26T01:51:02.338Z,1025.66924554
2018-07-26T01:51:14.724Z,1025.66924554
2018-07-26T01:51:27.134Z,1025.66924554
2018-07-26T01:51:39.541Z,1025.66924554
2018-07-26T01:51:51.929Z,1025.66924554
2018-07-26T01:52:04.312Z,1025.77083719
2018-07-26T01:52:16.706Z,1025.77083719
2018-07-26T01:52:29.104Z,1025.77083719
2018-07-26T01:52:41.488Z,1025.77083719
2018-07-26T01:52:53.917Z,1025.77083719
2018-07-26T01:53:06.303Z,1025.70310942
2018-07-26T01:53:18.670Z,1025.70310942
2018-07-26T01:53:31.055Z,1025.70310942
2018-07-26T01:53:43.436Z,1025.70310942
2018-07-26T01:53:55.846Z,1025.70310942
2018-07-26T01:54:08.259Z,1025.77083719
2018-07-26T01:54:20.665Z,1025.77083719
2018-07-26T01:54:33.059Z,1025.77083719
2018-07-26T01:54:45.453Z,1025.77083719
2018-07-26T01:54:57.844Z,1025.77083719
2018-07-26T01:55:10.251Z,1025.77083719
2018-07-26T01:55:22.653Z,1025.77083719
2018-07-26T01:55:35.045Z,1025.77083719
2018-07-26T01:55:47.443Z,1025.77083719
2018-07-26T01:55:59.829Z,1025.77083719
2018-07-26T01:56:12.230Z,1025.70310942
2018-07-26T01:56:24.635Z,1025.70310942
2018-07-26T01:56:37.033Z,1025.70310942
2018-07-26T01:56:49.439Z,1025.70310942
2018-07-26T01:57:01.858Z,1025.77083719
2018-07-26T01:57:14.268Z,1025.77083719
2018-07-26T01:57:26.702Z,1025.77083719
2018-07-26T01:57:39.094Z,1025.77083719
2018-07-26T01:57:51.476Z,1025.77083719
2018-07-26T01:58:03.859Z,1025.73697331
2018-07-26T01:58:16.258Z,1025.73697331
2018-07-26T01:58:28.650Z,1025.73697331
2018-07-26T01:58:41.039Z,1025.73697331
2018-07-26T01:58:53.612Z,1025.73697331
2018-07-26T01:59:05.999Z,1025.63538166
2018-07-26T01:59:18.401Z,1025.63538166
2018-07-26T01:59:30.828Z,1025.63538166
2018-07-26T01:59:43.210Z,1025.63538166
2018-07-26T01:59:55.645Z,1025.63538166
2018-07-26T02:00:08.044Z,1025.77083719
2018-07-26T02:00:20.498Z,1025.77083719
2018-07-26T02:00:32.940Z,1025.77083719
2018-07-26T02:00:45.461Z,1025.77083719
2018-07-26T02:00:57.861Z,1025.77083719
2018-07-26T02:01:10.409Z,1025.77083719
2018-07-26T02:01:22.805Z,1025.77083719
2018-07-26T02:01:35.390Z,1025.77083719
2018-07-26T02:01:48.792Z,1025.77083719
2018-07-26T02:02:01.422Z,1025.77083719
2018-07-26T02:02:14.015Z,1025.77083719
2018-07-26T02:02:26.398Z,1025.77083719
2018-07-26T02:02:38.792Z,1025.77083719
2018-07-26T02:02:51.230Z,1025.77083719
2018-07-26T02:03:03.636Z,1025.80470107
2018-07-26T02:03:16.023Z,1025.80470107
2018-07-26T02:03:28.420Z,1025.80470107
2018-07-26T02:03:40.818Z,1025.80470107
2018-07-26T02:03:53.220Z,1025.80470107
2018-07-26T02:04:05.624Z,1025.70310942
2018-07-26T02:04:18.022Z,1025.70310942
2018-07-26T02:04:30.440Z,1025.70310942
2018-07-26T02:04:42.844Z,1025.70310942
2018-07-26T02:04:55.253Z,1025.70310942
2018-07-26T02:05:07.646Z,1025.77083719
2018-07-26T02:05:20.047Z,1025.77083719
2018-07-26T02:05:32.435Z,1025.77083719
2018-07-26T02:05:44.846Z,1025.77083719
2018-07-26T02:05:57.222Z,1025.77083719
2018-07-26T02:06:09.613Z,1025.70310942
2018-07-26T02:06:22.022Z,1025.70310942
2018-07-26T02:06:34.429Z,1025.70310942
2018-07-26T02:06:46.829Z,1025.70310942
2018-07-26T02:06:59.274Z,1025.70310942